Weather Models
Both GFS & NAM
00z 06z 12z 18z
24hr Precip
00z 06z 12z 18z
36hr Simulated radar
00z 06z 12z 18z
SKEWT Soundings
00z 12z
Current Conditions (Updated 9:50am on 9/21/19)
Temperature
 75°
5.85
75°  
63°  
0
10
20
30
40
50
60
70
80
90
100
Dew Point
57°
59°  
51°  
-20
-10
0
10
20
30
40
50
60
70
80
Heat Index
76°
76°  
66°  
30
40
50
60
70
80
90
100
110
120
130
Heat Index
Humidity
54%
78% 
53% 
0
10
20
30
40
50
60
70
80
90
100
Barometer
30.25
   Steady
30.25  
30.22  
28.00
28.30
28.60
28.90
29.20
29.50
29.80
30.10
30.40
30.70
31.00
Temperature
Dew Point
Humidity
Pressure
Wind
6mph
  W
Daily Rain
.00
.05
.10
.15
.20
.25
.30
.35
.40
.45
.50
Rain Today
 0.00" 
Month Rain
0.00
0.20
0.40
0.60
0.80
1.00
1.20
1.40
1.60
1.80
2.00
Month Rain
 1.77" 
Year Rain
0.00
5.00
10.00
15.00
20.00
25.00
30.00
35.00
40.00
45.00
50.00
Year Rain
 41.92" 
Sun & Moon Data
Sunrise 6:49am
Sunset 7:01pm
Moonrise 11:35pm
Moonset 1:50pm
Moon % 62%
Other Rain Data
Past Hour 0.00 Past 24 Hours 0.00
Past 3 Hours 0.00 Past 7 Days 0.16
Past 6 Hours 0.00
Cloud Height
4432


Current Front Map
Current Satellite map
7 Day Forecast
NWS Forecast for Philadelphia PA
National Weather Service Forecast for: Philadelphia PA
Issued by: National Weather Service Philadelphia, PA
Updated: 6:41 am EDT Sep 21, 2019

Philadelphia
 
Today

Today: Sunny, with a high near 86. Calm wind becoming west around 5 mph in the afternoon.
Sunny

Tonight

Tonight: Mostly clear, with a low around 64. Southwest wind around 6 mph becoming calm  after midnight.
Mostly Clear

Sunday

Sunday: Sunny, with a high near 87. Calm wind becoming southwest 5 to 9 mph in the morning.
Sunny

Sunday
Night
Sunday Night: Mostly clear, with a low around 69. South wind around 8 mph.
Mostly Clear

Monday

Monday: A slight chance of showers after 2pm.  Mostly sunny, with a high near 87. Southwest wind 7 to 10 mph.  Chance of precipitation is 20%.
Mostly Sunny
then Slight
Chance
Showers
Monday
Night
Monday Night: A chance of showers and thunderstorms.  Mostly cloudy, with a low around 64. Chance of precipitation is 50%. New rainfall amounts of less than a tenth of an inch, except higher amounts possible in thunderstorms.
Chance
Showers

Tuesday

Tuesday: Sunny, with a high near 79.
Sunny

Tuesday
Night
Tuesday Night: Mostly clear, with a low around 58.
Mostly Clear

Wednesday

Wednesday: Sunny, with a high near 80.
Sunny

Hi 86 °F Lo 64 °F Hi 87 °F Lo 69 °F Hi 87 °F Lo 64 °F Hi 79 °F Lo 58 °F Hi 80 °F

 

Today
 
Sunny, with a high near 86. Calm wind becoming west around 5 mph in the afternoon.
Tonight
 
Mostly clear, with a low around 64. Southwest wind around 6 mph becoming calm after midnight.
Sunday
 
Sunny, with a high near 87. Calm wind becoming southwest 5 to 9 mph in the morning.
Sunday Night
 
Mostly clear, with a low around 69. South wind around 8 mph.
Monday
 
A slight chance of showers after 2pm. Mostly sunny, with a high near 87. Southwest wind 7 to 10 mph. Chance of precipitation is 20%.
Monday Night
 
A chance of showers and thunderstorms. Mostly cloudy, with a low around 64. Chance of precipitation is 50%. New rainfall amounts of less than a tenth of an inch, except higher amounts possible in thunderstorms.
Tuesday
 
Sunny, with a high near 79.
Tuesday Night
 
Mostly clear, with a low around 58.
Wednesday
 
Sunny, with a high near 80.
Wednesday Night
 
Partly cloudy, with a low around 61.
Thursday
 
Mostly sunny, with a high near 85.
Thursday Night
 
Partly cloudy, with a low around 63.
Friday
 
Sunny, with a high near 83.

 

Forecast from NOAA-NWS for Philadelphia PA.

Area Weather Current Conditions
Nearby METAR Reports

KPHL - Philadelphia, Pennsylvania
Updated: Sat, 21-Sep-2019 8:54am EDT
Partly Cloudy
Partly Cloudy
 Wind from SW
Wind: SW 7 mph , 11 km/h
Temperature: 64°F , 18°C
Dew Point: 59°F , 15°C
Humidity: 83%
Barometer: 30.25 inHg , 1024.4 hPa
Clouds: Partly Cloudy
Visibility: 10 miles , 16 km
Cloud details: Few Clouds 700 ft
Partly Cloudy 25000 ft
2019/09/21 12:54 KPHL 211254Z 22006KT 10SM FEW007 SCT250 18/15 A3025 RMK AO2 SLP243 T01780150 $
KMPO - Mt. Pocono, Pennsylvania
Updated: Sat, 21-Sep-2019 8:53am EDT
Clear
Clear
 Wind from W
Wind: W 6 mph , 9 km/h
Temperature: 63°F , 17°C
Dew Point: 55°F , 13°C
Humidity: 77%
Barometer: 30.28 inHg , 1025.4 hPa
Clouds: Clear
Visibility: 10 miles , 16 km
2019/09/21 12:53 KMPO 211253Z AUTO 28005KT 10SM CLR 17/13 A3028 RMK AO2 SLP249 T01670133
 
KACY - Atlantic City, New Jersey
Updated: Sat, 21-Sep-2019 8:54am EDT
Clear
Clear
 Wind from WSW
Wind: WSW 7 mph , 11 km/h
Temperature: 68°F , 20°C
Dew Point: 61°F , 16°C
Humidity: 78%
Barometer: 30.25 inHg , 1024.4 hPa
Clouds: Clear
Visibility: 10 miles , 16 km
2019/09/21 12:54 KACY 211254Z 25006KT 10SM CLR 20/16 A3025 RMK AO2 SLP242 T02000161
KMIV - Millville, New Jersey
Updated: Sat, 21-Sep-2019 8:54am EDT
Clear
Clear
 Wind from W
Wind: W 6 mph , 9 km/h
Temperature: 66°F , 19°C
Dew Point: 61°F , 16°C
Humidity: 83%
Barometer: 30.26 inHg , 1024.7 hPa
Clouds: Clear
Visibility: 10 miles , 16 km
2019/09/21 12:54 KMIV 211254Z AUTO 26005KT 10SM CLR 19/16 A3026 RMK AO2 SLP245 T01940161
 
KWWD - Wildwood, New Jersey
Updated: Sat, 21-Sep-2019 8:56am EDT
Clear
Clear
 Wind from WSW
Wind: WSW 8 mph , 13 km/h
Temperature: 70°F , 21°C
Dew Point: 63°F , 17°C
Humidity: 78%
Barometer: 30.26 inHg , 1024.7 hPa
Clouds: Clear
Visibility: 10 miles , 16 km
2019/09/21 12:56 KWWD 211256Z AUTO 25007KT 10SM CLR 21/17 A3026 RMK AO2 SLP249 T02110167
KDOV - Dover Afb, Delaware
Updated: Sat, 21-Sep-2019 8:56am EDT
Clear
Clear
 Wind from SSW
Wind: SSW 8 mph , 13 km/h
Temperature: 66°F , 19°C
Dew Point: 59°F , 15°C
Humidity: 78%
Barometer: 30.25 inHg , 1024.4 hPa
Clouds: Clear
Visibility: 10 miles , 16 km
2019/09/21 12:56 KDOV 211256Z AUTO 20007KT 10SM CLR 19/15 A3025 RMK AO2 SLP247 T01890150 $
Severe Weather Map